Time;durP1;ratioP1;P1;durP2;ratioP2;P2;SDS_P1;SDS_P2;PMS_P1;PMS_P2;Temp;Humidity;BMP_temperature;BMP_pressure;BME280_temperature;BME280_humidity;BME280_pressure;Samples;Min_cycle;Max_cycle;Signal;HPM_P1;HPM_P2
2021/12/17 00:00:46;;;;;;;28.42;22.73;;;5.80;99.90;;;;;;5074413;28;20244;-72
2021/12/17 00:03:21;;;;;;;30.70;22.52;;;5.90;99.90;;;;;;5074074;28;20693;-71
2021/12/17 00:06:07;;;;;;;34.53;22.90;;;5.90;99.90;;;;;;5073929;28;20206;-72
2021/12/17 00:08:34;;;;;;;33.67;24.40;;;6.00;99.90;;;;;;5074284;28;20550;-73
2021/12/17 00:11:01;;;;;;;36.65;24.25;;;5.90;99.90;;;;;;5074110;28;20847;-72
2021/12/17 00:13:28;;;;;;;31.83;22.23;;;5.70;99.90;;;;;;5073890;28;20226;-72
2021/12/17 00:15:56;;;;;;;31.55;23.25;;;5.70;99.90;;;;;;5073836;28;20213;-71
2021/12/17 00:18:28;;;;;;;33.80;24.02;;;5.70;99.90;;;;;;5073644;28;20253;-72
2021/12/17 00:48:35;;;;;;;29.67;21.90;;;6.20;99.90;;;;;;5073248;28;20205;-73
2021/12/17 00:51:37;;;;;;;30.70;21.10;;;6.20;99.90;;;;;;5073400;28;20284;-72
2021/12/17 00:54:07;;;;;;;32.60;22.77;;;6.30;99.90;;;;;;5072728;28;20222;-72
2021/12/17 00:56:34;;;;;;;30.20;22.83;;;6.20;99.90;;;;;;5072986;28;20206;-72
2021/12/17 00:59:01;;;;;;;33.13;23.58;;;6.30;99.90;;;;;;5073043;28;20214;-72
2021/12/17 01:01:28;;;;;;;31.17;22.60;;;6.10;99.90;;;;;;5073047;28;20225;-72
2021/12/17 01:03:57;;;;;;;31.05;23.20;;;6.10;99.90;;;;;;5072455;28;20230;-71
2021/12/17 01:06:24;;;;;;;30.13;20.77;;;6.20;99.90;;;;;;5072497;28;20233;-72
2021/12/17 01:08:51;;;;;;;29.15;22.02;;;6.30;99.90;;;;;;5072602;28;20199;-71
2021/12/17 01:11:19;;;;;;;31.80;22.92;;;6.30;99.90;;;;;;5073068;28;20210;-75
2021/12/17 01:13:46;;;;;;;31.45;22.85;;;6.20;99.90;;;;;;5072502;28;20268;-74
2021/12/17 01:16:14;;;;;;;34.33;23.00;;;6.20;99.90;;;;;;5072398;28;20214;-71
2021/12/17 01:18:52;;;;;;;28.85;21.88;;;6.20;99.90;;;;;;5072193;28;20199;-72
2021/12/17 01:21:29;;;;;;;31.92;23.90;;;6.30;99.90;;;;;;5073239;28;20623;-73
2021/12/17 01:43:29;;;;;;;29.95;22.33;;;6.40;99.90;;;;;;5072081;28;20215;-73
2021/12/17 01:45:57;;;;;;;31.58;23.33;;;6.40;99.90;;;;;;5071787;28;20211;-71
2021/12/17 01:48:30;;;;;;;32.63;23.10;;;6.40;99.90;;;;;;5072090;28;20292;-72
2021/12/17 01:56:39;;;;;;;33.17;23.40;;;6.20;99.90;;;;;;5071860;28;20205;-71
2021/12/17 01:59:32;;;;;;;30.42;22.58;;;6.20;99.90;;;;;;5071854;28;20288;-72
2021/12/17 02:02:04;;;;;;;30.25;24.00;;;6.30;99.90;;;;;;5073857;28;20219;-70
2021/12/17 02:04:32;;;;;;;28.55;22.50;;;6.20;99.90;;;;;;5073695;28;20226;-70
2021/12/17 02:06:59;;;;;;;30.45;23.02;;;6.30;99.90;;;;;;5073485;28;20293;-70
2021/12/17 02:12:28;;;;;;;33.22;23.98;;;6.30;99.90;;;;;;5050649;28;20284;-70
2021/12/17 02:20:47;;;;;;;34.60;23.25;;;6.00;99.90;;;;;;5037326;28;20277;-70
2021/12/17 02:28:43;;;;;;;30.20;22.25;;;6.20;99.90;;;;;;5073161;28;20236;-71
2021/12/17 02:29:01;;;;;;;32.03;23.02;;;6.30;99.90;;;;;;5073314;28;20659;-71
2021/12/17 02:31:30;;;;;;;31.00;22.40;;;6.30;99.90;;;;;;5073738;28;20202;-69
2021/12/17 02:34:02;;;;;;;31.10;22.35;;;6.30;99.90;;;;;;5073503;28;20254;-70
2021/12/17 02:36:33;;;;;;;31.75;22.83;;;6.40;99.90;;;;;;5073226;28;20604;-70
2021/12/17 02:39:18;;;;;;;32.53;22.67;;;6.50;99.90;;;;;;5073475;28;20199;-69
2021/12/17 02:47:14;;;;;;;29.25;22.73;;;6.40;99.90;;;;;;5073232;28;20202;-70
2021/12/17 02:49:43;;;;;;;31.50;24.40;;;6.50;99.90;;;;;;5073374;28;20213;-70
2021/12/17 02:52:14;;;;;;;34.25;26.30;;;6.40;99.90;;;;;;5073095;28;20199;-70
2021/12/17 02:54:41;;;;;;;34.67;24.08;;;6.20;99.90;;;;;;5072755;28;20337;-70
2021/12/17 02:57:09;;;;;;;32.35;24.65;;;6.10;99.90;;;;;;5074602;28;20557;-70
2021/12/17 02:59:38;;;;;;;33.33;23.77;;;6.00;99.90;;;;;;5076577;28;20306;-69
2021/12/17 03:02:07;;;;;;;33.78;24.58;;;6.00;99.90;;;;;;5076821;28;20227;-69
2021/12/17 03:04:35;;;;;;;31.75;23.73;;;5.90;99.90;;;;;;5076891;28;20265;-70
2021/12/17 03:07:03;;;;;;;30.52;24.17;;;6.10;99.90;;;;;;5076920;28;20209;-69
2021/12/17 03:09:45;;;;;;;30.33;23.50;;;6.10;99.90;;;;;;5076529;28;20206;-70
2021/12/17 03:12:18;;;;;;;37.47;24.50;;;6.00;99.90;;;;;;5076678;28;20532;-69
2021/12/17 03:14:53;;;;;;;29.70;23.05;;;6.10;99.90;;;;;;5076290;28;20318;-70
2021/12/17 03:17:36;;;;;;;33.47;22.70;;;6.10;99.90;;;;;;5076781;28;20202;-70
2021/12/17 03:25:33;;;;;;;30.27;23.58;;;6.30;99.90;;;;;;5076116;28;20684;-69
2021/12/17 03:28:00;;;;;;;26.05;21.45;;;6.40;99.90;;;;;;5076595;28;20542;-69
2021/12/17 03:30:27;;;;;;;27.80;21.45;;;6.40;99.90;;;;;;5076220;28;20202;-70
2021/12/17 03:32:54;;;;;;;26.48;20.75;;;6.30;99.90;;;;;;5076200;28;20219;-70
2021/12/17 03:35:20;;;;;;;27.92;21.90;;;6.30;99.90;;;;;;5075707;28;20207;-70
2021/12/17 03:37:48;;;;;;;28.15;21.60;;;6.40;99.90;;;;;;5076337;28;20563;-70
2021/12/17 03:40:17;;;;;;;28.80;21.70;;;6.50;99.90;;;;;;5075835;28;20301;-70
2021/12/17 03:42:48;;;;;;;24.25;20.13;;;6.40;99.90;;;;;;5075748;28;20230;-70
2021/12/17 03:45:17;;;;;;;31.58;22.80;;;6.50;99.90;;;;;;5075625;28;20207;-70
2021/12/17 03:47:44;;;;;;;32.63;21.50;;;6.40;99.90;;;;;;5076033;28;20205;-70
2021/12/17 03:50:11;;;;;;;28.70;21.83;;;6.40;99.90;;;;;;5076083;28;20234;-70
2021/12/17 03:52:38;;;;;;;29.02;22.27;;;6.50;99.90;;;;;;5076004;28;20209;-70
2021/12/17 03:55:05;;;;;;;29.23;22.02;;;6.50;99.90;;;;;;5076013;28;20302;-71
2021/12/17 03:57:32;;;;;;;34.88;22.45;;;6.40;99.90;;;;;;5075555;28;20229;-70
2021/12/17 04:00:00;;;;;;;29.85;21.40;;;6.40;99.90;;;;;;5075778;28;20293;-70
2021/12/17 04:02:27;;;;;;;30.95;21.60;;;6.40;99.90;;;;;;5075446;28;20665;-70
2021/12/17 04:04:54;;;;;;;26.60;20.20;;;6.30;99.90;;;;;;5075755;28;20209;-70
2021/12/17 04:07:21;;;;;;;30.75;22.17;;;6.30;99.90;;;;;;5075769;28;20310;-69
2021/12/17 04:09:47;;;;;;;27.95;20.75;;;6.20;99.90;;;;;;5075366;28;20245;-70
2021/12/17 04:12:17;;;;;;;25.52;20.67;;;6.20;99.90;;;;;;5075409;28;20286;-70
2021/12/17 04:14:46;;;;;;;31.27;21.13;;;6.30;99.90;;;;;;5075032;28;20245;-69
2021/12/17 04:17:22;;;;;;;26.20;19.70;;;6.30;99.90;;;;;;5075391;28;20209;-70
2021/12/17 04:19:49;;;;;;;29.77;21.17;;;6.30;99.90;;;;;;5075642;28;20206;-69
2021/12/17 04:22:16;;;;;;;28.80;20.65;;;6.20;99.90;;;;;;5075488;28;20556;-69
2021/12/17 04:24:43;;;;;;;26.58;20.90;;;6.40;99.90;;;;;;5074998;28;20309;-69
2021/12/17 04:27:10;;;;;;;27.20;20.95;;;6.40;99.90;;;;;;5075007;28;20198;-70
2021/12/17 04:29:41;;;;;;;29.40;22.25;;;6.50;99.90;;;;;;5075148;28;20289;-70
2021/12/17 04:32:08;;;;;;;26.77;20.42;;;6.40;99.90;;;;;;5075247;28;20194;-70
2021/12/17 04:34:37;;;;;;;33.22;22.77;;;6.30;99.90;;;;;;5074499;28;20309;-69
2021/12/17 04:37:04;;;;;;;29.85;22.27;;;6.20;99.90;;;;;;5074899;28;20298;-70
2021/12/17 04:39:31;;;;;;;31.65;23.15;;;6.20;99.90;;;;;;5074698;28;20661;-69
2021/12/17 04:42:02;;;;;;;28.23;20.60;;;6.40;99.90;;;;;;5074796;28;20310;-69
2021/12/17 04:44:32;;;;;;;27.95;20.90;;;6.50;99.90;;;;;;5075017;28;20229;-69
2021/12/17 04:57:13;;;;;;;28.80;20.30;;;6.50;99.90;;;;;;5075313;28;20205;-69
2021/12/17 04:58:03;;;;;;;27.77;21.98;;;6.70;99.90;;;;;;5074245;28;20263;-69
2021/12/17 05:00:31;;;;;;;28.85;20.95;;;6.60;99.90;;;;;;5074532;28;20218;-69
2021/12/17 05:02:59;;;;;;;26.63;21.27;;;6.70;99.90;;;;;;5074170;28;20226;-69
2021/12/17 05:05:31;;;;;;;32.13;22.83;;;6.70;99.90;;;;;;5074061;28;20264;-69
2021/12/17 05:08:05;;;;;;;29.98;22.08;;;6.50;99.90;;;;;;5074650;28;20230;-69
2021/12/17 05:10:50;;;;;;;25.70;20.65;;;6.60;99.90;;;;;;5074815;28;20206;-69
2021/12/17 05:18:51;;;;;;;25.90;20.05;;;6.70;99.90;;;;;;5074125;28;20206;-70
2021/12/17 05:21:22;;;;;;;26.77;20.52;;;6.70;99.90;;;;;;5073703;28;20252;-69
2021/12/17 05:23:51;;;;;;;26.40;20.20;;;6.90;99.90;;;;;;5074225;28;20304;-69
2021/12/17 05:26:20;;;;;;;26.80;20.95;;;6.80;99.90;;;;;;5074079;28;20252;-69
2021/12/17 05:28:48;;;;;;;27.30;21.38;;;7.00;99.90;;;;;;5074244;28;20204;-69
2021/12/17 05:31:16;;;;;;;28.35;21.15;;;6.90;99.90;;;;;;5073729;28;20206;-69
2021/12/17 05:33:43;;;;;;;26.50;19.95;;;7.00;99.90;;;;;;5073819;28;20222;-69
2021/12/17 05:36:10;;;;;;;25.90;20.38;;;6.80;99.90;;;;;;5073914;28;20206;-69
2021/12/17 05:38:38;;;;;;;27.92;20.83;;;6.80;99.90;;;;;;5074168;28;20544;-69
2021/12/17 05:41:05;;;;;;;25.58;20.83;;;6.90;99.90;;;;;;5074212;28;20203;-69
2021/12/17 05:43:35;;;;;;;25.10;19.40;;;7.00;99.90;;;;;;5073572;28;20240;-69
2021/12/17 05:46:09;;;;;;;24.75;19.75;;;7.00;99.90;;;;;;5073743;28;20248;-69
2021/12/17 05:48:36;;;;;;;30.58;21.95;;;7.00;99.90;;;;;;5073960;28;20206;-69
2021/12/17 05:51:07;;;;;;;28.33;20.67;;;6.90;99.90;;;;;;5074013;28;20198;-69
2021/12/17 05:53:34;;;;;;;28.00;21.00;;;7.00;99.90;;;;;;5074100;28;20219;-69
2021/12/17 05:56:02;;;;;;;25.40;20.92;;;6.90;99.90;;;;;;5073482;28;20623;-69
2021/12/17 05:58:30;;;;;;;24.67;19.05;;;7.00;99.90;;;;;;5073524;28;20218;-69
2021/12/17 06:00:57;;;;;;;26.75;20.80;;;7.10;99.90;;;;;;5073534;28;20211;-69
2021/12/17 06:03:24;;;;;;;25.27;20.10;;;7.10;99.90;;;;;;5073402;28;20261;-69
2021/12/17 06:05:51;;;;;;;28.25;20.90;;;7.10;99.90;;;;;;5073489;28;20209;-69
2021/12/17 06:08:18;;;;;;;28.45;20.30;;;7.00;99.90;;;;;;5073901;28;20213;-70
2021/12/17 06:10:45;;;;;;;28.05;21.80;;;6.90;99.90;;;;;;5073477;28;20640;-69
2021/12/17 06:13:13;;;;;;;30.90;22.00;;;6.80;99.90;;;;;;5073500;28;20222;-69
2021/12/17 06:15:40;;;;;;;31.00;21.98;;;6.70;99.90;;;;;;5073495;28;20565;-69
2021/12/17 06:18:07;;;;;;;29.70;22.98;;;6.60;99.90;;;;;;5073715;28;20205;-69
2021/12/17 06:20:34;;;;;;;25.83;20.48;;;6.70;99.90;;;;;;5073766;28;20202;-69
2021/12/17 06:23:01;;;;;;;30.67;21.98;;;6.80;99.90;;;;;;5073587;28;20230;-69
2021/12/17 06:25:27;;;;;;;30.67;20.60;;;6.70;99.90;;;;;;5073008;28;20669;-69
2021/12/17 06:27:54;;;;;;;27.10;22.60;;;6.60;99.90;;;;;;5073453;28;20293;-69
2021/12/17 06:30:22;;;;;;;29.92;22.95;;;6.60;99.90;;;;;;5073520;28;20301;-69
2021/12/17 06:32:49;;;;;;;30.65;22.75;;;6.60;99.90;;;;;;5076024;28;20704;-69
2021/12/17 06:35:17;;;;;;;27.05;20.65;;;6.70;99.90;;;;;;5077128;28;20688;-69
2021/12/17 06:37:44;;;;;;;29.08;22.10;;;6.90;99.90;;;;;;5076833;28;20758;-69
2021/12/17 06:40:12;;;;;;;31.52;22.10;;;6.80;99.90;;;;;;5077113;28;20203;-69
2021/12/17 06:42:39;;;;;;;27.05;20.80;;;6.80;99.90;;;;;;5077074;28;20227;-69
2021/12/17 06:45:15;;;;;;;25.52;19.92;;;6.90;99.90;;;;;;5077073;28;20202;-70
2021/12/17 06:47:52;;;;;;;28.27;20.17;;;7.00;99.90;;;;;;5077375;28;20339;-69
2021/12/17 07:07:49;;;;;;;27.65;20.10;;;6.70;99.90;;;;;;5014736;28;20232;-69
2021/12/17 07:10:15;;;;;;;27.60;20.75;;;6.60;99.90;;;;;;5073796;28;20252;-69
2021/12/17 07:24:04;;;;;;;20.83;16.10;;;6.90;99.90;;;;;;5073111;28;20695;-69
2021/12/17 07:35:02;;;;;;;21.33;16.42;;;6.80;99.90;;;;;;5070527;28;20218;-69
2021/12/17 07:40:14;;;;;;;19.02;15.50;;;6.90;99.90;;;;;;5076288;28;20241;-70
2021/12/17 07:42:41;;;;;;;20.23;14.55;;;6.90;99.90;;;;;;5075443;28;20310;-70
2021/12/17 07:45:08;;;;;;;18.02;14.35;;;7.10;99.90;;;;;;5075847;28;20202;-70
2021/12/17 07:47:35;;;;;;;19.92;16.73;;;7.10;99.90;;;;;;5076140;28;20207;-69
2021/12/17 07:50:02;;;;;;;19.48;15.25;;;7.20;99.90;;;;;;5076189;28;20209;-69
2021/12/17 07:52:30;;;;;;;20.67;15.63;;;7.20;99.90;;;;;;5075600;28;20241;-69
2021/12/17 07:54:57;;;;;;;19.70;13.65;;;7.30;99.90;;;;;;5075350;28;20203;-69
2021/12/17 07:57:24;;;;;;;19.65;13.73;;;7.20;99.90;;;;;;5075671;28;20302;-70
2021/12/17 07:59:51;;;;;;;29.02;25.70;;;7.20;99.90;;;;;;5075880;28;20557;-69
2021/12/17 08:02:18;;;;;;;16.63;14.13;;;7.30;99.90;;;;;;5075701;28;20214;-69
2021/12/17 08:04:45;;;;;;;17.40;14.13;;;7.30;99.90;;;;;;5075314;28;20347;-69
2021/12/17 08:07:12;;;;;;;15.38;12.20;;;7.30;99.90;;;;;;5075871;28;20234;-70
2021/12/17 08:09:40;;;;;;;14.85;11.48;;;7.30;99.90;;;;;;5075509;28;20564;-69
2021/12/17 08:12:10;;;;;;;14.63;11.23;;;7.30;99.90;;;;;;5075558;28;20202;-69
2021/12/17 08:14:36;;;;;;;15.05;11.00;;;7.30;99.90;;;;;;5075484;28;20226;-69
2021/12/17 08:17:16;;;;;;;12.40;10.10;;;7.20;99.90;;;;;;5075568;28;20206;-69
2021/12/17 08:25:15;;;;;;;13.15;9.30;;;7.00;99.90;;;;;;5075214;28;20259;-69
2021/12/17 08:27:50;;;;;;;12.10;9.10;;;7.00;99.90;;;;;;5075460;28;20230;-69
2021/12/17 08:30:25;;;;;;;12.80;10.25;;;6.90;99.90;;;;;;5075043;28;20203;-69
2021/12/17 08:32:52;;;;;;;13.30;9.95;;;6.90;99.90;;;;;;5075090;28;20572;-69
2021/12/17 08:35:19;;;;;;;12.80;9.00;;;6.80;99.90;;;;;;5074834;28;20568;-69
2021/12/17 08:37:46;;;;;;;13.43;10.65;;;6.80;99.90;;;;;;5075164;28;20206;-69
2021/12/17 08:40:14;;;;;;;13.88;10.73;;;6.70;99.90;;;;;;5074575;28;20298;-69
2021/12/17 08:42:41;;;;;;;23.83;17.92;;;6.60;99.90;;;;;;5074933;28;20699;-69
2021/12/17 08:45:09;;;;;;;28.60;21.00;;;6.60;99.90;;;;;;5074666;28;20568;-69
2021/12/17 08:47:37;;;;;;;16.10;11.80;;;6.60;99.90;;;;;;5074821;28;20213;-69
2021/12/17 08:50:08;;;;;;;13.98;10.45;;;6.60;99.90;;;;;;5074929;28;20203;-69
2021/12/17 08:52:35;;;;;;;25.75;19.17;;;6.60;99.90;;;;;;5074795;28;20293;-69
2021/12/17 08:55:02;;;;;;;22.23;16.05;;;6.60;99.90;;;;;;5074077;28;20294;-69
2021/12/17 08:57:30;;;;;;;17.10;12.90;;;6.60;99.90;;;;;;5074142;28;20663;-70
2021/12/17 09:00:04;;;;;;;15.15;10.85;;;6.50;99.90;;;;;;5074632;28;20213;-69
2021/12/17 09:02:33;;;;;;;14.15;10.38;;;6.60;99.90;;;;;;5074511;28;20280;-70
2021/12/17 09:05:00;;;;;;;15.20;11.35;;;6.50;99.90;;;;;;5074281;28;20305;-69
2021/12/17 09:07:27;;;;;;;21.33;14.77;;;6.60;99.90;;;;;;5074695;28;20203;-69
2021/12/17 09:09:54;;;;;;;14.38;11.00;;;6.60;99.90;;;;;;5074258;28;20206;-69
2021/12/17 09:12:21;;;;;;;21.70;14.65;;;6.60;99.90;;;;;;5074372;28;20299;-69
2021/12/17 09:14:49;;;;;;;10.85;8.40;;;6.60;99.90;;;;;;5074006;28;20331;-69
2021/12/17 09:17:16;;;;;;;11.93;8.65;;;6.60;99.90;;;;;;5074436;28;20207;-69
2021/12/17 09:19:43;;;;;;;26.15;15.75;;;6.60;99.90;;;;;;5074685;28;20605;-69
2021/12/17 09:22:10;;;;;;;12.45;9.80;;;6.60;99.90;;;;;;5074440;28;20238;-69
2021/12/17 09:24:37;;;;;;;10.07;7.82;;;6.70;99.90;;;;;;5073795;28;20223;-69
2021/12/17 09:27:04;;;;;;;10.10;8.00;;;6.60;99.90;;;;;;5074165;28;20202;-69
2021/12/17 09:29:31;;;;;;;10.00;8.43;;;6.70;99.90;;;;;;5074050;28;20679;-70
2021/12/17 09:31:59;;;;;;;8.85;7.95;;;6.70;99.90;;;;;;5074243;28;20225;-69
2021/12/17 09:34:26;;;;;;;9.00;7.50;;;6.70;99.90;;;;;;5073985;28;20219;-69
2021/12/17 09:36:52;;;;;;;9.52;8.38;;;6.70;99.90;;;;;;5073798;28;20205;-69
2021/12/17 09:39:19;;;;;;;9.60;8.18;;;6.70;99.90;;;;;;5073937;28;20291;-69
2021/12/17 09:41:50;;;;;;;10.57;8.35;;;6.70;99.90;;;;;;5073997;28;20609;-69
2021/12/17 09:44:17;;;;;;;9.68;8.38;;;6.80;99.90;;;;;;5073949;28;20284;-69
2021/12/17 09:46:46;;;;;;;10.30;8.10;;;6.70;99.90;;;;;;5073942;28;20209;-69
2021/12/17 09:49:16;;;;;;;11.40;8.85;;;6.60;99.90;;;;;;5073568;28;20207;-70
2021/12/17 09:51:44;;;;;;;11.85;9.63;;;6.70;99.90;;;;;;5073788;28;20301;-69
2021/12/17 09:54:12;;;;;;;13.07;10.00;;;6.60;99.90;;;;;;5073625;28;20279;-70
2021/12/17 09:56:39;;;;;;;10.88;9.07;;;6.60;99.90;;;;;;5073725;28;20203;-69
2021/12/17 09:59:06;;;;;;;11.55;9.25;;;6.70;99.90;;;;;;5073810;28;20222;-69
2021/12/17 10:01:37;;;;;;;11.82;10.07;;;6.70;99.90;;;;;;5073974;28;20209;-69
2021/12/17 10:04:16;;;;;;;11.80;9.32;;;6.70;99.90;;;;;;5073482;28;20256;-69
2021/12/17 10:06:44;;;;;;;11.57;9.10;;;6.80;99.90;;;;;;5078177;28;20199;-69
2021/12/17 10:09:11;;;;;;;11.18;9.65;;;6.90;99.90;;;;;;5080471;28;20199;-69
2021/12/17 10:11:37;;;;;;;10.35;8.55;;;6.80;99.90;;;;;;5080521;28;20228;-69
2021/12/17 10:14:18;;;;;;;14.20;9.88;;;6.90;99.90;;;;;;5080488;28;20218;-69
2021/12/17 10:16:45;;;;;;;11.32;8.65;;;7.00;99.90;;;;;;5079833;28;20198;-70
2021/12/17 10:19:12;;;;;;;12.38;9.18;;;7.00;99.90;;;;;;5080103;28;20203;-69
2021/12/17 10:21:46;;;;;;;13.13;9.75;;;6.90;99.90;;;;;;5080338;28;20297;-69
2021/12/17 10:24:22;;;;;;;12.38;8.70;;;7.00;99.90;;;;;;5080385;28;20317;-69
2021/12/17 10:26:48;;;;;;;13.10;9.77;;;7.10;99.90;;;;;;5080487;28;20206;-69
2021/12/17 10:29:20;;;;;;;11.70;9.02;;;7.10;99.90;;;;;;5079855;28;20209;-70
2021/12/17 10:31:56;;;;;;;11.70;9.52;;;7.20;99.90;;;;;;5079996;28;20653;-69
2021/12/17 10:34:24;;;;;;;12.90;10.13;;;7.00;99.90;;;;;;5080301;28;20276;-70
2021/12/17 10:36:53;;;;;;;13.55;10.40;;;6.80;99.90;;;;;;5080356;28;20209;-69
2021/12/17 10:39:24;;;;;;;14.98;10.30;;;6.70;99.90;;;;;;5080369;28;20643;-70
2021/12/17 10:41:52;;;;;;;13.75;11.43;;;6.60;99.90;;;;;;5079764;28;20722;-70
2021/12/17 10:44:20;;;;;;;16.58;11.25;;;6.50;99.90;;;;;;5073960;28;20727;-71
2021/12/17 10:47:07;;;;;;;13.07;10.30;;;6.50;99.90;;;;;;5069798;28;20206;-70
2021/12/17 10:49:34;;;;;;;16.15;10.43;;;6.50;99.90;;;;;;5078530;28;20572;-71
2021/12/17 10:52:07;;;;;;;15.25;11.27;;;6.60;99.90;;;;;;5078681;28;20217;-68
2021/12/17 10:54:34;;;;;;;13.70;11.00;;;6.70;99.90;;;;;;5078471;28;20214;-68
2021/12/17 10:57:01;;;;;;;14.07;11.00;;;6.90;99.90;;;;;;5078185;28;20206;-68
2021/12/17 10:59:31;;;;;;;13.00;10.18;;;7.00;99.90;;;;;;5078013;28;20212;-68
2021/12/17 11:02:02;;;;;;;14.55;11.93;;;7.10;99.90;;;;;;5078561;28;20199;-68
2021/12/17 11:04:30;;;;;;;15.32;11.27;;;7.20;99.90;;;;;;5078110;28;20258;-68
2021/12/17 11:07:00;;;;;;;13.40;11.30;;;7.20;99.90;;;;;;5078025;28;20681;-68
2021/12/17 11:09:40;;;;;;;11.70;10.50;;;7.10;99.90;;;;;;5078234;28;20305;-68
2021/12/17 11:12:28;;;;;;;12.88;11.55;;;7.20;99.90;;;;;;5078297;28;20202;-68
2021/12/17 11:15:10;;;;;;;14.30;11.73;;;7.20;99.90;;;;;;5078756;28;20186;-69
2021/12/17 11:17:38;;;;;;;12.60;11.13;;;7.20;99.90;;;;;;5075901;28;20289;-69
2021/12/17 11:20:07;;;;;;;15.02;11.90;;;7.20;99.90;;;;;;5074946;28;20673;-69
2021/12/17 11:22:35;;;;;;;13.85;11.85;;;7.20;99.90;;;;;;5075113;28;20203;-70
2021/12/17 11:25:05;;;;;;;13.93;12.02;;;7.20;99.90;;;;;;5074899;28;20219;-69
2021/12/17 11:27:32;;;;;;;15.10;10.68;;;7.30;99.90;;;;;;5075187;28;20206;-69
2021/12/17 11:29:59;;;;;;;14.30;12.30;;;7.40;99.90;;;;;;5074986;28;20657;-70
2021/12/17 11:32:26;;;;;;;14.52;11.00;;;7.40;99.90;;;;;;5075054;28;20232;-69
2021/12/17 11:34:54;;;;;;;15.02;11.23;;;7.40;99.90;;;;;;5074699;28;20219;-69
2021/12/17 11:37:23;;;;;;;15.45;11.68;;;7.50;99.90;;;;;;5074985;28;20202;-70
2021/12/17 11:39:55;;;;;;;16.58;11.65;;;7.50;99.90;;;;;;5074692;28;20250;-69
2021/12/17 11:42:37;;;;;;;14.77;12.07;;;7.50;99.90;;;;;;5075026;28;20579;-69
2021/12/17 11:45:26;;;;;;;13.27;11.23;;;7.50;99.90;;;;;;5074797;28;20584;-68
2021/12/17 11:47:55;;;;;;;16.33;11.18;;;7.50;99.90;;;;;;5074623;28;20202;-69
2021/12/17 11:50:22;;;;;;;15.55;11.50;;;7.50;99.90;;;;;;5075132;28;20203;-68
2021/12/17 11:52:50;;;;;;;16.02;11.55;;;7.50;99.90;;;;;;5074630;28;20245;-68
2021/12/17 11:55:29;;;;;;;15.77;11.65;;;7.50;99.90;;;;;;5074495;28;20199;-69
2021/12/17 11:58:01;;;;;;;13.05;10.00;;;7.60;99.90;;;;;;5074411;28;20220;-68
2021/12/17 12:00:33;;;;;;;14.13;10.48;;;7.60;99.90;;;;;;5074527;28;20199;-69
2021/12/17 12:03:15;;;;;;;11.55;9.68;;;7.60;99.90;;;;;;5074286;28;20313;-69
2021/12/17 12:05:43;;;;;;;11.50;10.35;;;7.70;99.90;;;;;;5074213;28;20210;-68
2021/12/17 12:08:31;;;;;;;12.07;10.60;;;7.70;99.90;;;;;;5074245;28;20680;-69
2021/12/17 12:11:09;;;;;;;13.98;11.00;;;7.60;99.90;;;;;;5074040;28;20214;-69
2021/12/17 12:13:40;;;;;;;12.10;9.90;;;7.50;99.90;;;;;;5074319;28;20215;-69
2021/12/17 12:16:08;;;;;;;13.05;10.32;;;7.50;99.90;;;;;;5074188;28;20210;-69
2021/12/17 12:18:57;;;;;;;13.77;10.82;;;7.50;99.90;;;;;;5074200;28;20203;-69
2021/12/17 12:21:26;;;;;;;13.80;10.52;;;7.60;99.90;;;;;;5069367;28;20210;-68
2021/12/17 12:23:56;;;;;;;12.05;9.73;;;7.60;99.90;;;;;;5073921;28;20639;-68
2021/12/17 12:26:28;;;;;;;11.23;9.10;;;7.60;99.90;;;;;;5073895;28;20286;-68
2021/12/17 12:29:09;;;;;;;12.23;9.25;;;7.70;99.90;;;;;;5072663;28;20241;-69
2021/12/17 12:31:48;;;;;;;11.50;8.88;;;7.80;99.90;;;;;;5073400;28;20213;-68
2021/12/17 12:34:16;;;;;;;11.05;9.20;;;7.90;99.90;;;;;;5073795;28;20272;-68
2021/12/17 12:36:52;;;;;;;11.07;9.27;;;8.00;99.90;;;;;;5073775;28;20569;-68
2021/12/17 12:39:22;;;;;;;12.32;9.90;;;8.10;99.90;;;;;;5073277;28;20550;-68
2021/12/17 12:41:56;;;;;;;12.48;9.18;;;8.10;99.90;;;;;;5073440;28;20210;-67
2021/12/17 12:45:09;;;;;;;12.88;9.85;;;8.20;99.90;;;;;;5073279;28;20718;-67
2021/12/17 12:47:42;;;;;;;11.80;8.75;;;8.10;99.90;;;;;;5073370;28;20301;-67
2021/12/17 12:50:12;;;;;;;12.23;9.60;;;8.10;99.90;;;;;;5073376;28;20207;-68
2021/12/17 12:52:43;;;;;;;11.35;8.38;;;8.20;99.90;;;;;;5073277;28;20251;-68
2021/12/17 12:55:15;;;;;;;11.30;9.55;;;8.30;99.90;;;;;;5073381;28;20290;-67
2021/12/17 12:57:44;;;;;;;12.05;9.95;;;8.30;99.90;;;;;;5073276;28;20225;-68
2021/12/17 13:00:17;;;;;;;12.90;9.48;;;8.30;99.90;;;;;;5073284;28;20202;-69
2021/12/17 13:02:45;;;;;;;11.15;9.15;;;8.40;99.90;;;;;;5074856;28;20298;-75
2021/12/17 13:05:12;;;;;;;11.45;8.85;;;8.40;99.90;;;;;;5074710;28;20688;-68
2021/12/17 13:07:41;;;;;;;11.38;9.10;;;8.50;99.90;;;;;;5074455;28;20300;-68
2021/12/17 13:10:11;;;;;;;9.30;8.35;;;8.50;99.90;;;;;;5074612;28;20207;-68
2021/12/17 13:12:38;;;;;;;9.73;8.45;;;8.50;99.90;;;;;;5074571;28;20276;-68
2021/12/17 13:15:17;;;;;;;10.48;9.38;;;8.60;99.90;;;;;;5074298;28;20260;-68
2021/12/17 13:21:01;;;;;;;10.77;9.02;;;8.50;99.90;;;;;;5074422;28;20209;-72
2021/12/17 13:23:30;;;;;;;10.98;8.52;;;8.50;99.90;;;;;;5074455;28;20223;-69
2021/12/17 13:26:06;;;;;;;10.93;8.88;;;8.70;99.90;;;;;;5073901;28;20669;-68
2021/12/17 13:29:01;;;;;;;11.82;9.43;;;8.80;99.90;;;;;;5074154;28;20203;-69
2021/12/17 13:31:34;;;;;;;11.23;8.90;;;8.90;99.90;;;;;;5074454;28;20211;-69
2021/12/17 13:34:05;;;;;;;10.70;8.95;;;9.00;99.90;;;;;;5073735;28;20226;-68
2021/12/17 13:36:32;;;;;;;11.88;9.30;;;9.00;99.90;;;;;;5073783;28;20194;-68
2021/12/17 13:38:59;;;;;;;14.10;10.35;;;8.90;99.90;;;;;;5073548;28;20209;-68
2021/12/17 13:41:41;;;;;;;11.50;9.35;;;8.90;99.90;;;;;;5073446;28;20668;-68
2021/12/17 13:44:26;;;;;;;13.18;10.55;;;8.80;99.90;;;;;;5074474;28;20656;-68
2021/12/17 13:46:54;;;;;;;12.18;10.20;;;8.70;99.90;;;;;;5074248;28;20207;-68
2021/12/17 13:49:22;;;;;;;11.65;9.38;;;8.60;99.90;;;;;;5073850;28;20209;-68
2021/12/17 13:51:49;;;;;;;12.10;9.85;;;8.60;99.90;;;;;;5073898;28;20209;-68
2021/12/17 13:54:16;;;;;;;12.98;10.60;;;8.50;99.90;;;;;;5073804;28;20695;-68
2021/12/17 13:56:43;;;;;;;14.23;10.27;;;8.40;99.90;;;;;;5073774;28;20277;-68
2021/12/17 13:59:10;;;;;;;15.45;10.00;;;8.50;99.90;;;;;;5073377;28;20245;-68
2021/12/17 14:01:37;;;;;;;12.10;9.77;;;8.40;99.90;;;;;;5073677;28;20289;-68
2021/12/17 14:04:13;;;;;;;11.57;9.73;;;8.40;99.90;;;;;;5073666;28;20269;-68
2021/12/17 14:06:51;;;;;;;12.60;9.85;;;8.40;99.90;;;;;;5073157;28;20278;-68
2021/12/17 14:09:19;;;;;;;12.07;9.43;;;8.40;99.90;;;;;;5073818;28;20221;-68
2021/12/17 14:11:46;;;;;;;11.98;9.90;;;8.50;99.90;;;;;;5073489;28;20203;-68
2021/12/17 14:14:24;;;;;;;12.45;10.32;;;8.60;99.90;;;;;;5073303;28;20222;-68
2021/12/17 14:16:58;;;;;;;12.80;10.05;;;8.50;99.90;;;;;;5073468;28;20260;-68
2021/12/17 14:19:43;;;;;;;12.93;9.70;;;8.50;99.90;;;;;;5073726;28;20198;-68
2021/12/17 14:22:27;;;;;;;15.15;9.75;;;8.50;99.90;;;;;;5073868;28;20203;-68
2021/12/17 14:24:55;;;;;;;12.88;10.00;;;8.50;99.90;;;;;;5072826;28;20783;-68
2021/12/17 14:27:22;;;;;;;13.68;10.50;;;8.60;99.90;;;;;;5073559;28;20206;-68
2021/12/17 14:30:03;;;;;;;12.52;10.43;;;8.50;99.90;;;;;;5073347;28;20209;-68
2021/12/17 14:32:30;;;;;;;13.15;10.07;;;8.50;99.90;;;;;;5073773;28;20202;-68
2021/12/17 14:34:57;;;;;;;12.85;10.98;;;8.50;99.90;;;;;;5073145;28;20210;-68
2021/12/17 14:37:25;;;;;;;14.52;11.13;;;8.50;99.90;;;;;;5073183;28;20665;-68
2021/12/17 14:39:55;;;;;;;13.23;10.32;;;8.50;99.90;;;;;;5072945;28;20293;-68
2021/12/17 14:42:34;;;;;;;14.15;11.55;;;8.30;99.90;;;;;;5073527;28;20203;-68
2021/12/17 14:45:05;;;;;;;19.80;12.07;;;8.40;99.90;;;;;;5072932;28;20607;-68
2021/12/17 14:47:38;;;;;;;15.05;11.77;;;8.40;99.90;;;;;;5073235;28;20225;-68
2021/12/17 15:01:17;;;;;;;14.65;11.80;;;8.50;99.90;;;;;;5077088;28;20602;-68
2021/12/17 15:03:44;;;;;;;14.40;12.18;;;8.40;99.90;;;;;;5076718;28;20281;-68
2021/12/17 15:06:13;;;;;;;13.93;12.43;;;8.30;99.90;;;;;;5076169;28;20227;-68
2021/12/17 15:08:42;;;;;;;13.75;12.15;;;8.30;99.90;;;;;;5076514;28;20211;-68
2021/12/17 15:11:24;;;;;;;16.27;12.77;;;8.20;99.90;;;;;;5076785;28;20206;-68
2021/12/17 15:13:50;;;;;;;16.73;12.90;;;8.10;99.90;;;;;;5076131;28;20229;-68
2021/12/17 15:16:17;;;;;;;17.70;13.65;;;8.10;99.90;;;;;;5076076;28;20203;-68
2021/12/17 15:18:44;;;;;;;16.50;13.15;;;8.10;99.90;;;;;;5076520;28;20199;-68
2021/12/17 15:21:11;;;;;;;16.90;13.70;;;8.10;99.90;;;;;;5076552;28;20207;-68
2021/12/17 15:23:38;;;;;;;16.08;13.32;;;8.10;99.90;;;;;;5076161;28;20592;-68
2021/12/17 15:26:06;;;;;;;16.35;13.32;;;8.20;99.90;;;;;;5076117;28;20222;-68